createdAt,value
2023-02-01T00:14:00.356Z,72.5
2023-02-01T00:29:34.732Z,72.4
2023-02-01T00:45:09.123Z,72.4
2023-02-01T01:00:43.780Z,73.3
2023-02-01T01:16:18.419Z,72.6
2023-02-01T01:31:53.148Z,72.1
2023-02-01T01:47:27.681Z,71.5
2023-02-01T02:03:02.052Z,71.2
2023-02-01T02:18:36.573Z,71.2
2023-02-01T02:34:10.919Z,70.8
2023-02-01T02:49:45.267Z,69.8
2023-02-01T03:05:19.653Z,69
2023-02-01T03:20:54.014Z,70.5
2023-02-01T03:36:28.395Z,71.2
2023-02-01T03:52:03.064Z,71.3
2023-02-01T04:07:37.603Z,72.2
2023-02-01T04:23:12.348Z,74.4
2023-02-01T04:38:46.717Z,74
2023-02-01T04:54:21.096Z,75
2023-02-01T05:09:55.468Z,74.9
2023-02-01T05:25:29.879Z,76.6
2023-02-01T05:41:04.265Z,76.7
2023-02-01T05:56:38.761Z,75.9
2023-02-01T06:12:13.156Z,74.1
2023-02-01T06:27:47.516Z,73.3
2023-02-01T06:43:21.887Z,73.1
2023-02-01T06:58:56.280Z,71.2
2023-02-01T07:14:30.659Z,69.9
2023-02-01T07:30:05.035Z,68.7
2023-02-01T07:45:48.203Z,68.5
2023-02-01T08:01:23.177Z,67.3
2023-02-01T08:16:57.993Z,67.1
2023-02-01T08:32:32.488Z,68.2
2023-02-01T08:48:06.861Z,69
2023-02-01T09:03:41.467Z,70.5
2023-02-01T09:19:28.733Z,74.2
2023-02-01T09:35:03.113Z,73.9
2023-02-01T09:50:37.541Z,69
2023-02-01T10:06:11.922Z,68
2023-02-01T10:21:46.311Z,66.5
2023-02-01T10:37:20.755Z,66.2
2023-02-01T10:52:55.323Z,66.4
2023-02-01T11:08:29.750Z,65
2023-02-01T11:24:04.202Z,63.5
2023-02-01T11:39:38.763Z,61.4
2023-02-01T11:55:13.251Z,60.3
2023-02-01T12:10:47.912Z,61.5
2023-02-01T12:26:22.409Z,61
2023-02-01T12:41:56.905Z,62.2
2023-02-01T12:57:31.328Z,63.1
2023-02-01T13:13:05.721Z,63.6
2023-02-01T13:28:42.894Z,63.1
2023-02-01T13:44:17.305Z,64.6
2023-02-01T13:59:51.761Z,63.9
2023-02-01T14:15:27.779Z,62.4
2023-02-01T14:31:03.057Z,61.8
2023-02-01T14:46:37.884Z,62.2
2023-02-01T15:02:12.528Z,62.5
2023-02-01T15:17:46.933Z,61
2023-02-01T15:33:21.410Z,61.5
2023-02-01T15:48:55.988Z,62.5
2023-02-01T16:04:30.402Z,67.4
2023-02-01T16:20:04.830Z,67.4
2023-02-01T16:35:39.386Z,68.5
2023-02-01T16:51:13.748Z,68.7
2023-02-01T17:06:48.190Z,68.2
2023-02-01T17:22:22.541Z,91.7
2023-02-01T17:37:56.936Z,99.3
2023-02-01T17:53:31.254Z,99.9
2023-02-01T18:09:06.455Z,99.9
2023-02-01T18:24:40.791Z,98.6
2023-02-01T18:40:15.112Z,96.4
2023-02-01T18:55:50.041Z,95.6
2023-02-01T19:11:24.480Z,96.4
2023-02-01T19:26:59.080Z,94.8
2023-02-01T19:42:33.614Z,92.8
2023-02-01T19:58:08.103Z,90.7
2023-02-01T20:13:41.702Z,87.9
2023-02-01T20:29:17.033Z,88.9
2023-02-01T20:44:51.429Z,88.6
2023-02-01T21:00:25.766Z,85.9
2023-02-01T21:16:00.425Z,87.2
2023-02-01T21:31:35.147Z,89.7
2023-02-01T21:47:09.915Z,89.3
2023-02-01T22:02:44.553Z,89
2023-02-01T22:18:19.007Z,86.4
2023-02-01T22:33:53.325Z,87.7
2023-02-01T22:49:27.658Z,89.1
2023-02-01T23:05:01.981Z,88.7
2023-02-01T23:20:36.314Z,86.8
2023-02-01T23:36:10.659Z,87
2023-02-01T23:51:45.025Z,85.9
